Ennice, NC

1:41 AM EDT on March 31, 2015 (GMT -0400)
High Country Lights | | Change Station
CLOSE
Current Station
Personal Weather Station
Location: Ennice, NC
Elevation: 2871 ft
Nearby Weather Stations
Active Advisory: Special Statement

Elev 2871 ft 36.51 °N, 80.95 °W | Updated 1 minute ago

Clear
Clear
44.5 °F
Feels Like 39 °F
N
11.0
Wind Variable Wind from NW
Gusts 11.0 mph

Today
High -- | Low -- °F
--% Chance of Precip.
Yesterday
High -- | Low -- °F
Precip. -- in
7:11 AM 7:44 PM
Waxing Gibbous, 84% visible
Pressure 30.04 in
Visibility 10.0 miles
Clouds Clear
Windchill 39 °F
Dew Point 29 °F
Humidity 54%
Rainfall 0.00 in
Snow Depth Not available.
UV 0 out of 12
Pollen 9.90 out of 12
Air Quality Not available.
Flu Activity Not available.
METAR KHLX 310535Z AUTO 30007KT 10SM CLR 07/M03 A3004 RMK AO2 T00711031

More Conditions Fewer Conditions

Pressure 30.04 in
Visibility 10.0 miles
Clouds Clear
Windchill 39 °F
Dew Point 29 °F
Humidity 54%
Rainfall 0.00 in
Snow Depth Not available.
UV 0 out of 12
Pollen 9.90 out of 12
Air Quality Not available.
Flu Activity Not available.
METAR KHLX 310535Z AUTO 30007KT 10SM CLR 07/M03 A3004 RMK AO2 T00711031

More Conditions Fewer Conditions

10-Day Weather Forecast

Almanac

Astronomy

Mar. 31, 2015 Rise Set
Actual Time
Civil Twilight
Nautical Twilight
Astronomical Twilight
Moon
Length of Visible Light
Length of Day
Tomorrow will be .
, % of the Moon is Illuminated

Today's Extremes

State Highs State Lows

Community

WunderPhotos

Upload Photos

1,809,724 photos uploaded!

WunderBlogs® & News

Nearby

Air Quality

  Air Quality AQ Index Pollutant
Not available.

Snow Depth

Station Depth Elevation

Earthquake Activity

City Distance Mag. Time & Date
Minimum magnitude displayed is 2.5.

Coastal Water Temperatures

Place Temperature

Stations

Nearby Weather Stations

Station Location Temp. Windchill Dew Point Humidity Wind Precip. Elev Updated Type
                   
Special Statement
Statement as of 10:42 PM EDT on March 30, 2015


... Increased fire danger Tuesday afternoon...

A cold front with limited moisture will drop south across the
region on Tuesday. Temperatures will climb into the lower 60s
to the lower 70s Tuesday afternoon. Relative humidity values
could fall into the lower to mid 20s for several hours with
readings possibly reaching into the teens along the ridges. Fine
fuels will see enhanced drying Tuesday as heating and mixing
combine allowing fuel moisture levels to drop to near critical
values during the afternoon hours. Westerly winds will range from
around 10 mph to 20 mph. The Ridgetop winds could average around
20 to 25 mph Tuesday afternoon. Winds could gusts up to 40 mph in
the higher elevations Tuesday afternoon. The combination of dry
air and fuels will heighten fire danger.

Please advise the appropriate officials and fire crews in the
field of this Fire Danger Statement.

Additional fire weather information is available on our web site at
http://www.Weather.Gov/rnk